Time;durP1;ratioP1;P1;durP2;ratioP2;P2;SDS_P1;SDS_P2;PMS_P1;PMS_P2;Temp;Humidity;BMP_temperature;BMP_pressure;BME280_temperature;BME280_humidity;BME280_pressure;Samples;Min_cycle;Max_cycle;Signal;HPM_P1;HPM_P2
2022/04/28 00:00:50;;;;;;;6.38;5.88;;;;;;;;;;5074596;28;20256;-80
2022/04/28 00:03:18;;;;;;;6.00;5.32;;;;;;;;;;5080337;28;20246;-80
2022/04/28 00:05:47;;;;;;;6.05;5.10;;;;;;;;;;5081007;28;20212;-80
2022/04/28 00:08:14;;;;;;;6.60;6.00;;;;;;;;;;5074299;28;20254;-80
2022/04/28 00:10:42;;;;;;;6.35;5.85;;;;;;;;;;5084679;28;20201;-80
2022/04/28 00:13:12;;;;;;;5.07;4.68;;;;;;;;;;5077023;28;20254;-81
2022/04/28 00:15:40;;;;;;;5.60;5.10;;;;;;;;;;5080019;28;20229;-80
2022/04/28 00:18:08;;;;;;;5.05;4.55;;;;;;;;;;5070834;28;20197;-80
2022/04/28 00:20:35;;;;;;;7.05;5.88;;;;;;;;;;5070938;28;20295;-81
2022/04/28 00:23:03;;;;;;;6.00;5.40;;;;;;;;;;5078767;28;20250;-81
2022/04/28 00:25:31;;;;;;;5.90;5.40;;;;;;;;;;5083139;28;20229;-80
2022/04/28 00:27:58;;;;;;;6.88;6.03;;;;;;;;;;5074298;28;20684;-80
2022/04/28 00:30:26;;;;;;;6.03;5.53;;;;;;;;;;5076961;28;20227;-80
2022/04/28 00:32:53;;;;;;;5.97;5.38;;;;;;;;;;5073338;28;20661;-80
2022/04/28 00:35:20;;;;;;;7.15;6.45;;;;;;;;;;5077394;28;20192;-80
2022/04/28 00:37:47;;;;;;;6.90;5.60;;;;;;;;;;5083510;28;20212;-82
2022/04/28 00:40:16;;;;;;;5.68;5.10;;;;;;;;;;5085955;28;20197;-80
2022/04/28 00:42:43;;;;;;;5.57;4.88;;;;;;;;;;5087204;28;20208;-80
2022/04/28 00:45:11;;;;;;;5.70;5.25;;;;;;;;;;5087347;28;20193;-80
2022/04/28 00:50:41;;;;;;;6.50;5.90;;;;;;;;;;5081125;28;20297;-80
2022/04/28 00:53:12;;;;;;;5.70;5.20;;;;;;;;;;5081127;28;20714;-80
2022/04/28 00:55:41;;;;;;;5.88;5.38;;;;;;;;;;5078432;28;20213;-80
2022/04/28 00:58:10;;;;;;;6.57;5.80;;;;;;;;;;5078590;28;20665;-80
2022/04/28 01:00:39;;;;;;;6.63;6.03;;;;;;;;;;5080630;28;20288;-82
2022/04/28 01:03:06;;;;;;;7.50;5.80;;;;;;;;;;5076917;28;20753;-81
2022/04/28 01:05:34;;;;;;;7.22;5.43;;;;;;;;;;5079898;28;20696;-80
2022/04/28 01:08:02;;;;;;;5.80;5.30;;;;;;;;;;5090970;28;20188;-80
2022/04/28 01:10:29;;;;;;;6.45;5.95;;;;;;;;;;5089811;28;20721;-80
2022/04/28 01:12:58;;;;;;;5.50;5.07;;;;;;;;;;5077980;28;20208;-81
2022/04/28 01:15:26;;;;;;;11.02;6.00;;;;;;;;;;5078240;28;20606;-80
2022/04/28 01:17:53;;;;;;;10.35;6.25;;;;;;;;;;5078457;28;21021;-80
2022/04/28 01:20:21;;;;;;;6.13;5.53;;;;;;;;;;5078673;28;20200;-82
2022/04/28 01:22:49;;;;;;;7.78;5.82;;;;;;;;;;5086267;28;20716;-80
2022/04/28 01:25:16;;;;;;;6.20;5.43;;;;;;;;;;5071540;28;20193;-82
2022/04/28 01:27:44;;;;;;;6.65;5.95;;;;;;;;;;5073491;28;20668;-80
2022/04/28 01:30:15;;;;;;;6.95;6.28;;;;;;;;;;5073885;28;20208;-80
2022/04/28 01:32:43;;;;;;;7.50;6.25;;;;;;;;;;5076364;28;20188;-81
2022/04/28 01:35:11;;;;;;;14.13;6.82;;;;;;;;;;5079134;28;20894;-81
2022/04/28 01:37:38;;;;;;;7.68;6.88;;;;;;;;;;5087239;28;20196;-80
2022/04/28 01:40:11;;;;;;;8.38;7.55;;;;;;;;;;5086986;28;20284;-80
2022/04/28 01:42:39;;;;;;;8.52;7.60;;;;;;;;;;5071897;28;20225;-82
2022/04/28 01:45:08;;;;;;;10.18;7.45;;;;;;;;;;5077392;28;20219;-80
2022/04/28 01:47:36;;;;;;;9.38;7.38;;;;;;;;;;5071552;28;20203;-80
2022/04/28 01:50:06;;;;;;;7.85;7.15;;;;;;;;;;5086254;28;20200;-80
2022/04/28 01:55:20;;;;;;;12.07;8.50;;;;;;;;;;5076511;28;20266;-80
2022/04/28 01:57:48;;;;;;;8.70;7.75;;;;;;;;;;5082654;28;20193;-81
2022/04/28 02:00:16;;;;;;;8.90;7.95;;;;;;;;;;5073627;28;20192;-80
2022/04/28 02:02:44;;;;;;;11.02;8.20;;;;;;;;;;5076948;28;20724;-83
2022/04/28 02:05:12;;;;;;;8.57;7.82;;;;;;;;;;5079436;28;20204;-80
2022/04/28 02:07:40;;;;;;;10.52;8.68;;;;;;;;;;5075138;28;20254;-80
2022/04/28 02:10:09;;;;;;;9.95;8.32;;;;;;;;;;5083686;28;20204;-80
2022/04/28 02:12:38;;;;;;;8.02;7.22;;;;;;;;;;5073795;28;20197;-80
2022/04/28 02:15:06;;;;;;;9.13;8.25;;;;;;;;;;5073693;28;20287;-80
2022/04/28 02:17:37;;;;;;;9.50;8.60;;;;;;;;;;5078016;28;20619;-80
2022/04/28 02:20:06;;;;;;;8.95;6.75;;;;;;;;;;5076783;28;20199;-80
2022/04/28 02:22:33;;;;;;;8.73;7.95;;;;;;;;;;5076463;28;20684;-80
2022/04/28 02:25:03;;;;;;;9.98;7.72;;;;;;;;;;5087663;28;20257;-80
2022/04/28 02:27:31;;;;;;;7.95;7.20;;;;;;;;;;5083682;28;20200;-80
2022/04/28 02:29:59;;;;;;;8.98;8.05;;;;;;;;;;5084520;28;20200;-80
2022/04/28 02:33:08;;;;;;;8.25;7.20;;;;;;;;;;5081953;28;20196;-80
2022/04/28 02:35:15;;;;;;;8.07;7.38;;;;;;;;;;5075650;28;20211;-80
2022/04/28 02:37:43;;;;;;;8.60;7.80;;;;;;;;;;5070762;28;20197;-80
2022/04/28 02:40:11;;;;;;;7.47;6.78;;;;;;;;;;5080953;28;20275;-80
2022/04/28 02:42:38;;;;;;;8.60;7.78;;;;;;;;;;5092980;28;20714;-81
2022/04/28 02:45:08;;;;;;;10.43;8.68;;;;;;;;;;5081274;28;20201;-80
2022/04/28 02:47:36;;;;;;;8.52;7.70;;;;;;;;;;5076228;28;20193;-80
2022/04/28 02:50:05;;;;;;;9.65;8.23;;;;;;;;;;5077114;28;20201;-80
2022/04/28 02:52:33;;;;;;;9.38;8.02;;;;;;;;;;5095370;28;20200;-80
2022/04/28 02:55:00;;;;;;;8.55;7.72;;;;;;;;;;5079958;28;20197;-80
2022/04/28 02:57:27;;;;;;;12.02;7.93;;;;;;;;;;5087089;28;20196;-80
2022/04/28 02:59:55;;;;;;;8.60;7.65;;;;;;;;;;5088380;28;20251;-81
2022/04/28 03:02:23;;;;;;;8.48;7.68;;;;;;;;;;5077875;28;20766;-80
2022/04/28 03:04:50;;;;;;;9.35;8.38;;;;;;;;;;5093490;28;20246;-80
2022/04/28 03:12:49;;;;;;;8.48;7.72;;;;;;;;;;5076872;28;20318;-80
2022/04/28 03:15:17;;;;;;;10.20;9.20;;;;;;;;;;5083982;28;20203;-80
2022/04/28 03:17:45;;;;;;;8.77;7.93;;;;;;;;;;5090622;28;20574;-80
2022/04/28 03:20:13;;;;;;;8.30;7.60;;;;;;;;;;5075850;28;20201;-80
2022/04/28 03:22:40;;;;;;;9.25;8.35;;;;;;;;;;5073708;28;20228;-80
2022/04/28 03:25:09;;;;;;;10.48;8.45;;;;;;;;;;5081187;28;20200;-80
2022/04/28 03:27:37;;;;;;;8.55;7.72;;;;;;;;;;5075362;28;20254;-80
2022/04/28 03:30:07;;;;;;;11.07;9.10;;;;;;;;;;5079778;28;20200;-80
2022/04/28 03:32:35;;;;;;;15.23;10.38;;;;;;;;;;5078252;28;20200;-80
2022/04/28 03:35:04;;;;;;;10.45;9.27;;;;;;;;;;5077559;28;20235;-82
2022/04/28 03:37:31;;;;;;;9.20;8.30;;;;;;;;;;5084235;28;20322;-80
2022/04/28 03:39:58;;;;;;;10.35;9.18;;;;;;;;;;5094312;28;20192;-80
2022/04/28 03:42:27;;;;;;;9.70;8.80;;;;;;;;;;5089436;28;20223;-81
2022/04/28 03:44:55;;;;;;;11.85;9.32;;;;;;;;;;5090094;28;20197;-80
2022/04/28 03:47:22;;;;;;;9.88;8.98;;;;;;;;;;5088346;28;20315;-79
2022/04/28 03:49:49;;;;;;;11.20;10.10;;;;;;;;;;5082521;28;20196;-79
2022/04/28 03:52:18;;;;;;;9.85;8.90;;;;;;;;;;5088418;28;20196;-80
2022/04/28 03:54:45;;;;;;;9.80;8.90;;;;;;;;;;5090753;28;20189;-80
2022/04/28 03:57:12;;;;;;;10.40;8.48;;;;;;;;;;5083505;28;20224;-80
2022/04/28 03:59:40;;;;;;;10.25;8.60;;;;;;;;;;5074028;28;20204;-80
2022/04/28 04:02:07;;;;;;;9.75;8.85;;;;;;;;;;5081296;28;20193;-80
2022/04/28 04:04:34;;;;;;;10.10;9.18;;;;;;;;;;5080498;28;20209;-80
2022/04/28 04:07:02;;;;;;;9.80;8.82;;;;;;;;;;5087660;28;20261;-80
2022/04/28 04:09:30;;;;;;;10.55;9.02;;;;;;;;;;5089072;28;20205;-80
2022/04/28 04:11:58;;;;;;;8.80;7.90;;;;;;;;;;5075028;28;20197;-80
2022/04/28 04:14:25;;;;;;;9.40;8.48;;;;;;;;;;5074057;28;20203;-79
2022/04/28 04:16:52;;;;;;;10.18;8.63;;;;;;;;;;5086968;28;20216;-81
2022/04/28 04:19:19;;;;;;;10.05;8.98;;;;;;;;;;5091588;28;20619;-80
2022/04/28 04:21:46;;;;;;;10.27;9.27;;;;;;;;;;5073567;28;20239;-80
2022/04/28 04:24:14;;;;;;;9.30;8.40;;;;;;;;;;5073298;28;20224;-80
2022/04/28 04:26:43;;;;;;;9.85;8.85;;;;;;;;;;5075741;28;20228;-80
2022/04/28 04:29:10;;;;;;;13.65;8.20;;;;;;;;;;5086021;28;20251;-80
2022/04/28 04:34:22;;;;;;;9.30;8.40;;;;;;;;;;5076468;28;20196;-79
2022/04/28 04:36:50;;;;;;;9.07;8.20;;;;;;;;;;5089877;28;20257;-80
2022/04/28 04:39:17;;;;;;;13.10;8.35;;;;;;;;;;5077726;28;20677;-80
2022/04/28 04:41:46;;;;;;;8.82;7.80;;;;;;;;;;5082372;28;20661;-81
2022/04/28 04:44:14;;;;;;;8.73;7.28;;;;;;;;;;5072464;28;20224;-81
2022/04/28 04:46:41;;;;;;;11.32;8.05;;;;;;;;;;5079025;28;20274;-81
2022/04/28 04:49:09;;;;;;;7.85;7.07;;;;;;;;;;5078195;28;20250;-81
2022/04/28 04:51:36;;;;;;;9.55;8.63;;;;;;;;;;5073413;28;20207;-84
2022/04/28 04:54:03;;;;;;;15.38;9.40;;;;;;;;;;5081812;28;20254;-80
2022/04/28 04:56:31;;;;;;;8.68;7.88;;;;;;;;;;5092458;28;20269;-79
2022/04/28 04:58:59;;;;;;;9.93;8.65;;;;;;;;;;5090880;28;20197;-79
2022/04/28 05:01:27;;;;;;;10.40;8.57;;;;;;;;;;5084357;28;20617;-80
2022/04/28 05:03:54;;;;;;;10.98;8.60;;;;;;;;;;5076316;28;20254;-80
2022/04/28 05:06:21;;;;;;;8.57;7.78;;;;;;;;;;5088835;28;20770;-81
2022/04/28 05:08:49;;;;;;;12.93;8.23;;;;;;;;;;5089946;28;20201;-80
2022/04/28 05:11:16;;;;;;;8.82;7.93;;;;;;;;;;5076912;28;20224;-80
2022/04/28 05:13:43;;;;;;;9.20;7.60;;;;;;;;;;5090373;28;20219;-80
2022/04/28 05:16:12;;;;;;;8.68;7.68;;;;;;;;;;5080505;28;20223;-79
2022/04/28 05:18:39;;;;;;;9.18;7.80;;;;;;;;;;5080957;28;20193;-83
2022/04/28 05:21:07;;;;;;;10.95;8.55;;;;;;;;;;5081536;28;20192;-79
2022/04/28 05:23:34;;;;;;;10.52;8.48;;;;;;;;;;5088044;28;20641;-81
2022/04/28 05:26:01;;;;;;;8.50;7.75;;;;;;;;;;5071642;28;20624;-79
2022/04/28 05:28:29;;;;;;;7.70;6.93;;;;;;;;;;5086370;28;20199;-79
2022/04/28 05:30:56;;;;;;;10.43;9.13;;;;;;;;;;5091038;28;20200;-80
2022/04/28 05:33:25;;;;;;;8.55;7.75;;;;;;;;;;5087778;28;20710;-79
2022/04/28 05:35:53;;;;;;;7.60;6.88;;;;;;;;;;5071836;28;20731;-79
2022/04/28 05:38:20;;;;;;;9.43;7.70;;;;;;;;;;5074546;28;20251;-80
2022/04/28 05:40:47;;;;;;;9.38;8.30;;;;;;;;;;5073069;28;20731;-79
2022/04/28 05:46:00;;;;;;;9.70;7.82;;;;;;;;;;5073047;28;20259;-79
2022/04/28 05:48:28;;;;;;;8.82;7.93;;;;;;;;;;5085385;28;20200;-80
2022/04/28 05:50:56;;;;;;;9.77;7.35;;;;;;;;;;5083685;28;20205;-80
2022/04/28 05:53:23;;;;;;;7.80;7.05;;;;;;;;;;5079143;28;20201;-80
2022/04/28 05:55:50;;;;;;;8.60;7.45;;;;;;;;;;5075334;28;20243;-80
2022/04/28 05:58:18;;;;;;;8.93;7.88;;;;;;;;;;5072644;28;20205;-80
2022/04/28 06:00:45;;;;;;;7.85;7.10;;;;;;;;;;5088573;28;20196;-80
2022/04/28 06:03:12;;;;;;;9.88;7.38;;;;;;;;;;5086006;28;20853;-81
2022/04/28 06:05:41;;;;;;;8.43;7.60;;;;;;;;;;5089151;28;20220;-80
2022/04/28 06:08:08;;;;;;;7.47;6.70;;;;;;;;;;5081005;28;20197;-82
2022/04/28 06:10:35;;;;;;;8.88;7.97;;;;;;;;;;5072665;28;20193;-81
2022/04/28 06:13:03;;;;;;;9.77;7.18;;;;;;;;;;5075854;28;20201;-81
2022/04/28 06:15:30;;;;;;;8.32;6.90;;;;;;;;;;5083569;28;20266;-80
2022/04/28 06:17:59;;;;;;;8.20;7.40;;;;;;;;;;5090011;28;20262;-80
2022/04/28 06:20:26;;;;;;;8.93;7.53;;;;;;;;;;5082836;28;20224;-81
2022/04/28 06:22:54;;;;;;;8.15;7.35;;;;;;;;;;5080679;28;20234;-82
2022/04/28 06:25:23;;;;;;;8.73;7.40;;;;;;;;;;5080286;28;20602;-81
2022/04/28 06:27:51;;;;;;;5.97;5.45;;;;;;;;;;5076328;28;20205;-81
2022/04/28 06:30:18;;;;;;;6.80;5.95;;;;;;;;;;5084046;28;20739;-82
2022/04/28 06:32:45;;;;;;;8.75;7.85;;;;;;;;;;5087534;28;20196;-82
2022/04/28 06:35:13;;;;;;;8.40;7.63;;;;;;;;;;5084702;28;20197;-81
2022/04/28 06:37:40;;;;;;;9.57;8.48;;;;;;;;;;5081988;28;20254;-81
2022/04/28 06:40:12;;;;;;;6.53;5.93;;;;;;;;;;5083178;28;20287;-81
2022/04/28 06:42:42;;;;;;;8.48;7.03;;;;;;;;;;5079505;28;20200;-81
2022/04/28 06:45:10;;;;;;;7.20;6.60;;;;;;;;;;5077270;28;20315;-81
2022/04/28 06:47:37;;;;;;;7.25;6.65;;;;;;;;;;5079652;28;20725;-81
2022/04/28 06:50:05;;;;;;;10.18;7.90;;;;;;;;;;5081700;28;20212;-81
2022/04/28 06:52:35;;;;;;;7.35;6.65;;;;;;;;;;5077936;28;20208;-81
2022/04/28 06:55:02;;;;;;;8.63;7.72;;;;;;;;;;5081987;28;20556;-81
2022/04/28 06:57:30;;;;;;;8.45;7.65;;;;;;;;;;5079532;28;20225;-81
2022/04/28 06:59:58;;;;;;;9.48;7.60;;;;;;;;;;5079488;28;20193;-81
2022/04/28 07:02:25;;;;;;;8.30;7.50;;;;;;;;;;5082256;28;20626;-81
2022/04/28 07:04:53;;;;;;;9.88;8.23;;;;;;;;;;5080291;28;20225;-81
2022/04/28 07:07:20;;;;;;;8.20;7.38;;;;;;;;;;5084466;28;20216;-81
2022/04/28 07:09:48;;;;;;;7.10;6.50;;;;;;;;;;5089477;28;20231;-82
2022/04/28 07:12:15;;;;;;;8.77;8.02;;;;;;;;;;5080571;28;20208;-82
2022/04/28 07:14:44;;;;;;;9.70;7.35;;;;;;;;;;5077542;28;20201;-82
2022/04/28 07:17:12;;;;;;;8.27;6.95;;;;;;;;;;5085361;28;20220;-81
2022/04/28 07:19:39;;;;;;;8.90;8.00;;;;;;;;;;5089458;28;20564;-82
2022/04/28 07:22:06;;;;;;;9.07;7.63;;;;;;;;;;5082927;28;20201;-81
2022/04/28 07:24:35;;;;;;;8.73;7.82;;;;;;;;;;5086749;28;20269;-82
2022/04/28 07:27:02;;;;;;;9.10;7.90;;;;;;;;;;5081465;28;20500;-83
2022/04/28 07:29:30;;;;;;;7.55;6.85;;;;;;;;;;5076857;28;20677;-82
2022/04/28 07:31:58;;;;;;;8.27;6.22;;;;;;;;;;5080328;28;20245;-82
2022/04/28 07:34:26;;;;;;;8.20;7.40;;;;;;;;;;5087171;28;20204;-82
2022/04/28 07:36:53;;;;;;;8.15;7.35;;;;;;;;;;5080944;28;20223;-82
2022/04/28 07:39:21;;;;;;;8.60;7.55;;;;;;;;;;5084960;28;20250;-82
2022/04/28 07:41:49;;;;;;;6.75;6.10;;;;;;;;;;5091091;28;20200;-82
2022/04/28 07:44:16;;;;;;;5.50;5.00;;;;;;;;;;5084004;28;20623;-82
2022/04/28 07:46:43;;;;;;;8.30;7.22;;;;;;;;;;5081915;28;20285;-82
2022/04/28 07:49:12;;;;;;;7.28;6.05;;;;;;;;;;5085219;28;20201;-82
2022/04/28 07:51:39;;;;;;;5.38;4.53;;;;;;;;;;5077939;28;20640;-81
2022/04/28 07:54:06;;;;;;;13.63;8.43;;;;;;;;;;5077982;28;20197;-83
2022/04/28 07:56:33;;;;;;;6.55;5.57;;;;;;;;;;5076168;28;20216;-81
2022/04/28 07:59:01;;;;;;;5.63;5.03;;;;;;;;;;5077925;28;20208;-81
2022/04/28 08:01:28;;;;;;;7.43;6.68;;;;;;;;;;5079888;28;20193;-81
2022/04/28 08:03:55;;;;;;;6.38;5.78;;;;;;;;;;5074602;28;20197;-81
2022/04/28 08:06:24;;;;;;;6.53;5.93;;;;;;;;;;5079214;28;20216;-82
2022/04/28 08:08:51;;;;;;;5.43;4.93;;;;;;;;;;5079718;28;20295;-82
2022/04/28 08:11:18;;;;;;;4.82;4.43;;;;;;;;;;5084435;28;20240;-81
2022/04/28 08:13:46;;;;;;;5.95;5.45;;;;;;;;;;5080031;28;20200;-82
2022/04/28 08:16:13;;;;;;;7.05;6.35;;;;;;;;;;5092788;28;20217;-82
2022/04/28 08:18:40;;;;;;;5.20;4.80;;;;;;;;;;5082715;28;20207;-81
2022/04/28 08:21:08;;;;;;;6.30;5.50;;;;;;;;;;5089480;28;20267;-82
2022/04/28 08:23:37;;;;;;;7.10;6.38;;;;;;;;;;5079395;28;20197;-81
2022/04/28 08:26:04;;;;;;;6.25;5.75;;;;;;;;;;5081124;28;20603;-81
2022/04/28 08:28:32;;;;;;;6.90;6.30;;;;;;;;;;5079749;28;20594;-81
2022/04/28 08:30:59;;;;;;;7.35;6.65;;;;;;;;;;5075268;28;20201;-82
2022/04/28 08:33:27;;;;;;;5.68;5.25;;;;;;;;;;5081266;28;20200;-81
2022/04/28 08:35:55;;;;;;;6.60;5.28;;;;;;;;;;5091719;28;20216;-81
2022/04/28 08:38:22;;;;;;;4.35;3.90;;;;;;;;;;5087841;28;20205;-81
2022/04/28 08:40:57;;;;;;;5.68;5.07;;;;;;;;;;5078639;28;20688;-81
2022/04/28 08:43:24;;;;;;;5.47;4.97;;;;;;;;;;5078982;28;20196;-81
2022/04/28 08:48:45;;;;;;;7.40;5.68;;;;;;;;;;5083814;28;20211;-81
2022/04/28 08:51:12;;;;;;;6.00;5.50;;;;;;;;;;5080759;28;20583;-82
2022/04/28 08:53:39;;;;;;;6.28;5.68;;;;;;;;;;5078041;28;20196;-81
2022/04/28 08:56:09;;;;;;;6.75;6.05;;;;;;;;;;5081329;28;20219;-82
2022/04/28 08:58:36;;;;;;;6.38;5.72;;;;;;;;;;5081127;28;20197;-82
2022/04/28 09:01:03;;;;;;;6.65;6.05;;;;;;;;;;5085865;28;20197;-82
2022/04/28 09:03:31;;;;;;;9.00;6.55;;;;;;;;;;5081561;28;20292;-82
2022/04/28 09:05:59;;;;;;;6.97;6.32;;;;;;;;;;5083009;28;20228;-82
2022/04/28 09:08:27;;;;;;;5.07;4.68;;;;;;;;;;5078866;28;20193;-82
2022/04/28 09:10:56;;;;;;;5.82;5.32;;;;;;;;;;5079685;28;20855;-83
2022/04/28 09:16:10;;;;;;;7.07;6.35;;;;;;;;;;5081768;28;20302;-82
2022/04/28 09:18:37;;;;;;;6.80;6.20;;;;;;;;;;5081018;28;20196;-83
2022/04/28 09:21:04;;;;;;;6.60;5.97;;;;;;;;;;5082324;28;20201;-83
2022/04/28 09:23:32;;;;;;;9.40;6.32;;;;;;;;;;5083468;28;20204;-82
2022/04/28 09:26:00;;;;;;;5.97;5.38;;;;;;;;;;5081306;28;20285;-80
2022/04/28 09:28:30;;;;;;;6.30;5.80;;;;;;;;;;5072510;28;20193;-81
2022/04/28 09:30:58;;;;;;;8.68;6.57;;;;;;;;;;5072746;28;20193;-82
2022/04/28 09:33:25;;;;;;;6.15;5.55;;;;;;;;;;5072039;28;20577;-81
2022/04/28 09:35:54;;;;;;;5.25;4.75;;;;;;;;;;5079336;28;20223;-81
2022/04/28 09:38:22;;;;;;;5.35;4.85;;;;;;;;;;5081881;28;20692;-81
2022/04/28 09:43:37;;;;;;;6.18;5.57;;;;;;;;;;5084080;28;20200;-81
2022/04/28 09:46:07;;;;;;;7.03;6.43;;;;;;;;;;5081133;28;21418;-81
2022/04/28 09:48:36;;;;;;;6.45;5.90;;;;;;;;;;5084115;28;20261;-81
2022/04/28 09:51:07;;;;;;;5.47;4.97;;;;;;;;;;5083032;28;20735;-82
2022/04/28 09:53:36;;;;;;;5.38;4.97;;;;;;;;;;5080507;28;20200;-82
2022/04/28 09:56:06;;;;;;;6.55;5.97;;;;;;;;;;5079832;28;20217;-82
2022/04/28 09:58:37;;;;;;;6.28;5.68;;;;;;;;;;5080863;28;20201;-82
2022/04/28 10:01:04;;;;;;;7.53;5.68;;;;;;;;;;5078162;28;20224;-81
2022/04/28 10:03:33;;;;;;;7.13;6.53;;;;;;;;;;5073874;28;20209;-82
2022/04/28 10:06:03;;;;;;;5.85;5.28;;;;;;;;;;5075103;28;20239;-83
2022/04/28 10:08:33;;;;;;;6.53;5.88;;;;;;;;;;5091473;28;20296;-82
2022/04/28 10:11:04;;;;;;;4.72;4.32;;;;;;;;;;5082780;28;20235;-82
2022/04/28 10:13:33;;;;;;;6.63;5.90;;;;;;;;;;5083918;28;20641;-82
2022/04/28 10:16:03;;;;;;;5.97;5.45;;;;;;;;;;5078754;28;20226;-82
2022/04/28 10:18:44;;;;;;;6.72;6.20;;;;;;;;;;5081092;28;20208;-82
2022/04/28 10:21:16;;;;;;;5.95;5.35;;;;;;;;;;5074301;28;20220;-81
2022/04/28 10:32:57;;;;;;;6.38;5.78;;;;;;;;;;5074018;28;20205;-81
2022/04/28 10:35:55;;;;;;;5.43;4.93;;;;;;;;;;5075643;28;20232;-80
2022/04/28 10:38:24;;;;;;;5.70;5.18;;;;;;;;;;5025554;28;20219;-81
2022/04/28 10:41:00;;;;;;;5.95;5.45;;;;;;;;;;5077607;28;20201;-80
2022/04/28 10:43:36;;;;;;;5.85;5.32;;;;;;;;;;5074716;28;20197;-80
2022/04/28 10:46:33;;;;;;;4.18;3.88;;;;;;;;;;5077680;28;20249;-82
2022/04/28 10:49:05;;;;;;;6.03;5.53;;;;;;;;;;5075006;28;20288;-81
2022/04/28 10:51:33;;;;;;;5.13;4.63;;;;;;;;;;5076788;28;20201;-80
2022/04/28 10:54:04;;;;;;;5.15;4.75;;;;;;;;;;5077133;28;20211;-81
2022/04/28 10:57:03;;;;;;;4.22;3.83;;;;;;;;;;5074704;28;20236;-82
2022/04/28 10:59:37;;;;;;;7.20;5.68;;;;;;;;;;5075467;28;20255;-81
2022/04/28 11:02:49;;;;;;;7.43;6.30;;;;;;;;;;5076301;28;20232;-81
2022/04/28 11:05:53;;;;;;;6.53;5.93;;;;;;;;;;5040859;28;20212;-81
2022/04/28 11:08:33;;;;;;;4.55;4.15;;;;;;;;;;5040941;28;20279;-80
2022/04/28 11:11:07;;;;;;;3.78;3.47;;;;;;;;;;5036141;28;20198;-81
2022/04/28 11:13:35;;;;;;;5.03;4.63;;;;;;;;;;5078050;28;20296;-80
2022/04/28 11:16:03;;;;;;;7.15;6.10;;;;;;;;;;5090211;28;20731;-81
2022/04/28 11:18:31;;;;;;;6.88;6.38;;;;;;;;;;5082958;28;20208;-81
2022/04/28 11:21:01;;;;;;;5.80;4.80;;;;;;;;;;5090013;28;20236;-82
2022/04/28 11:23:34;;;;;;;4.65;4.07;;;;;;;;;;5082602;28;20204;-81
2022/04/28 11:26:03;;;;;;;5.30;4.70;;;;;;;;;;5088771;28;20229;-81
2022/04/28 11:28:31;;;;;;;7.30;5.28;;;;;;;;;;5078117;28;20224;-82
2022/04/28 11:30:59;;;;;;;5.88;5.38;;;;;;;;;;5080887;28;20270;-81
2022/04/28 11:33:26;;;;;;;6.05;5.53;;;;;;;;;;5079094;28;20201;-80
2022/04/28 11:35:54;;;;;;;6.28;5.78;;;;;;;;;;5079506;28;20228;-82
2022/04/28 11:38:31;;;;;;;6.47;5.88;;;;;;;;;;5084478;28;20236;-82
2022/04/28 11:41:06;;;;;;;5.93;5.43;;;;;;;;;;5078397;28;20232;-81
2022/04/28 11:43:36;;;;;;;7.43;6.78;;;;;;;;;;5093023;28;20212;-81
2022/04/28 11:46:03;;;;;;;5.50;4.88;;;;;;;;;;5077642;28;20262;-80
2022/04/28 11:48:32;;;;;;;7.07;6.38;;;;;;;;;;5084093;28;20217;-81
2022/04/28 11:51:04;;;;;;;6.50;6.00;;;;;;;;;;5082595;28;20201;-81
2022/04/28 11:53:44;;;;;;;4.95;4.55;;;;;;;;;;5081508;28;20192;-81
2022/04/28 11:56:24;;;;;;;5.90;5.40;;;;;;;;;;5089802;28;20220;-80
2022/04/28 11:58:58;;;;;;;6.63;6.05;;;;;;;;;;5081363;28;20236;-80
2022/04/28 12:01:30;;;;;;;6.63;6.07;;;;;;;;;;5077656;28;20205;-80
2022/04/28 12:03:59;;;;;;;6.30;5.70;;;;;;;;;;5082855;28;20197;-80
2022/04/28 12:06:28;;;;;;;6.15;5.65;;;;;;;;;;5086142;28;20228;-80
2022/04/28 12:08:58;;;;;;;7.43;5.00;;;;;;;;;;5081317;28;20220;-80
2022/04/28 12:14:25;;;;;;;6.05;5.55;;;;;;;;;;5074628;28;20208;-80
2022/04/28 12:19:51;;;;;;;6.38;4.57;;;;;;;;;;5080611;28;20212;-80
2022/04/28 12:22:26;;;;;;;6.18;4.82;;;;;;;;;;5074462;28;20284;-79
2022/04/28 12:24:55;;;;;;;6.85;6.25;;;;;;;;;;5075505;28;20211;-79
2022/04/28 12:27:23;;;;;;;8.45;7.05;;;;;;;;;;5087733;28;20338;-79
2022/04/28 12:29:58;;;;;;;6.22;5.63;;;;;;;;;;5090135;28;20518;-80
2022/04/28 12:32:25;;;;;;;5.95;5.35;;;;;;;;;;5078951;28;20235;-79
2022/04/28 12:34:59;;;;;;;5.47;5.07;;;;;;;;;;5074222;28;20292;-80
2022/04/28 12:37:28;;;;;;;6.40;5.80;;;;;;;;;;5074516;28;20252;-80
2022/04/28 12:39:59;;;;;;;6.43;5.82;;;;;;;;;;5074554;28;20196;-80
2022/04/28 12:42:29;;;;;;;5.90;5.30;;;;;;;;;;5076034;28;20621;-79
2022/04/28 12:44:57;;;;;;;5.20;4.80;;;;;;;;;;5077148;28;20250;-79
2022/04/28 12:47:36;;;;;;;6.47;5.88;;;;;;;;;;5086271;28;20244;-78
2022/04/28 12:50:20;;;;;;;7.15;5.80;;;;;;;;;;5080054;28;20250;-78
2022/04/28 12:52:48;;;;;;;6.68;6.00;;;;;;;;;;5091664;28;20239;-78
2022/04/28 12:55:19;;;;;;;7.82;5.30;;;;;;;;;;5086905;28;20672;-79
2022/04/28 12:57:47;;;;;;;5.57;4.95;;;;;;;;;;5081266;28;20287;-79
2022/04/28 13:00:18;;;;;;;4.78;4.40;;;;;;;;;;5076316;28;20196;-78
2022/04/28 13:02:51;;;;;;;5.57;4.95;;;;;;;;;;5078486;28;20212;-80
2022/04/28 13:05:22;;;;;;;5.25;4.85;;;;;;;;;;5081722;28;20696;-79
2022/04/28 13:07:49;;;;;;;5.25;4.85;;;;;;;;;;5076612;28;20197;-79
2022/04/28 13:10:18;;;;;;;5.68;5.13;;;;;;;;;;5079076;28;20255;-79
2022/04/28 13:12:46;;;;;;;5.78;5.25;;;;;;;;;;5073110;28;20252;-80
2022/04/28 13:15:15;;;;;;;5.10;4.55;;;;;;;;;;5085676;28;20249;-79
2022/04/28 13:17:42;;;;;;;6.75;4.80;;;;;;;;;;5085603;28;20665;-79
2022/04/28 13:20:10;;;;;;;3.80;3.58;;;;;;;;;;5077709;28;20213;-79
2022/04/28 13:22:37;;;;;;;4.53;4.13;;;;;;;;;;5074172;28;20275;-79
2022/04/28 13:25:06;;;;;;;4.53;4.13;;;;;;;;;;5078713;28;20500;-79
2022/04/28 13:27:35;;;;;;;5.40;4.47;;;;;;;;;;5078762;28;20208;-80
2022/04/28 13:30:02;;;;;;;5.43;4.93;;;;;;;;;;5092534;28;20220;-79
2022/04/28 13:32:29;;;;;;;4.50;4.05;;;;;;;;;;5075530;28;20226;-78
2022/04/28 13:34:56;;;;;;;4.40;4.00;;;;;;;;;;5076994;28;20727;-79
2022/04/28 13:37:24;;;;;;;5.30;4.25;;;;;;;;;;5072574;28;20228;-78
2022/04/28 13:39:51;;;;;;;5.43;4.15;;;;;;;;;;5074371;28;20208;-79
2022/04/28 13:42:18;;;;;;;4.85;4.45;;;;;;;;;;5071216;28;20205;-80
2022/04/28 13:44:47;;;;;;;4.85;4.45;;;;;;;;;;5077451;28;20630;-79
2022/04/28 13:47:14;;;;;;;6.28;5.05;;;;;;;;;;5072677;28;20604;-79
2022/04/28 13:49:41;;;;;;;4.07;3.78;;;;;;;;;;5086722;28;20232;-79
2022/04/28 13:52:09;;;;;;;4.30;3.90;;;;;;;;;;5091735;28;20207;-80
2022/04/28 13:54:36;;;;;;;5.03;4.60;;;;;;;;;;5087281;28;20583;-80
2022/04/28 13:57:04;;;;;;;7.05;4.38;;;;;;;;;;5091985;28;20293;-79
2022/04/28 13:59:31;;;;;;;4.30;3.90;;;;;;;;;;5092216;28;20204;-78
2022/04/28 14:02:00;;;;;;;3.67;3.38;;;;;;;;;;5091876;28;20277;-80
2022/04/28 14:04:27;;;;;;;3.58;3.10;;;;;;;;;;5087873;28;20204;-79
2022/04/28 14:06:55;;;;;;;4.57;4.18;;;;;;;;;;5092208;28;20262;-80
2022/04/28 14:09:23;;;;;;;3.95;3.63;;;;;;;;;;5090852;28;20696;-79
2022/04/28 14:11:51;;;;;;;4.35;4.00;;;;;;;;;;5090212;28;20230;-79
2022/04/28 14:14:19;;;;;;;4.55;4.00;;;;;;;;;;5089852;28;20223;-78
2022/04/28 14:16:48;;;;;;;3.60;3.20;;;;;;;;;;5092111;28;20224;-79
2022/04/28 14:19:17;;;;;;;3.83;3.53;;;;;;;;;;5085171;28;20200;-79
2022/04/28 14:21:45;;;;;;;5.13;4.63;;;;;;;;;;5091752;28;20707;-79
2022/04/28 14:24:12;;;;;;;4.32;3.97;;;;;;;;;;5091891;28;20211;-79
2022/04/28 14:26:40;;;;;;;5.10;4.60;;;;;;;;;;5091416;28;20232;-80
2022/04/28 14:29:08;;;;;;;4.53;4.15;;;;;;;;;;5091849;28;20607;-79
2022/04/28 14:31:36;;;;;;;3.65;3.40;;;;;;;;;;5091689;28;20657;-78
2022/04/28 14:34:04;;;;;;;4.95;3.83;;;;;;;;;;5085634;28;20205;-79
2022/04/28 14:36:33;;;;;;;4.65;3.80;;;;;;;;;;5094874;28;20219;-79
2022/04/28 14:39:01;;;;;;;4.50;4.05;;;;;;;;;;5092303;28;20204;-79
2022/04/28 14:41:28;;;;;;;4.80;4.30;;;;;;;;;;5091200;28;20209;-80
2022/04/28 14:43:55;;;;;;;4.28;3.85;;;;;;;;;;5088081;28;20211;-79
2022/04/28 14:46:22;;;;;;;4.72;4.28;;;;;;;;;;5076265;28;20221;-79
2022/04/28 14:54:21;;;;;;;4.95;4.55;;;;;;;;;;5093419;28;20215;-79
2022/04/28 14:56:49;;;;;;;5.32;4.90;;;;;;;;;;5095956;28;20220;-79
2022/04/28 14:59:16;;;;;;;4.80;4.40;;;;;;;;;;5095776;28;20204;-79
2022/04/28 15:01:43;;;;;;;5.80;4.97;;;;;;;;;;5094837;28;20258;-80
2022/04/28 15:04:10;;;;;;;4.72;4.32;;;;;;;;;;5094649;28;20705;-79
2022/04/28 15:06:39;;;;;;;5.88;5.03;;;;;;;;;;5094827;28;20224;-79
2022/04/28 15:09:06;;;;;;;4.78;4.15;;;;;;;;;;5089716;28;20239;-79
2022/04/28 15:11:34;;;;;;;4.90;4.50;;;;;;;;;;5100214;23;20225;-88
2022/04/28 15:14:01;;;;;;;3.90;3.60;;;;;;;;;;5105465;28;20224;-88
2022/04/28 15:16:28;;;;;;;5.00;4.50;;;;;;;;;;5075903;28;20208;-87
2022/04/28 15:18:56;;;;;;;5.68;5.18;;;;;;;;;;5075920;28;20207;-88
2022/04/28 15:21:25;;;;;;;7.30;6.18;;;;;;;;;;5076207;28;20575;-88
2022/04/28 15:23:53;;;;;;;5.07;4.30;;;;;;;;;;5075420;28;20197;-89
2022/04/28 15:26:20;;;;;;;5.60;4.35;;;;;;;;;;5075729;28;20210;-87
2022/04/28 15:28:49;;;;;;;4.97;4.15;;;;;;;;;;5075489;28;20208;-87
2022/04/28 15:31:16;;;;;;;5.32;3.20;;;;;;;;;;5075261;28;20217;-87
2022/04/28 15:33:44;;;;;;;4.53;4.05;;;;;;;;;;5075435;28;20591;-87
2022/04/28 15:36:12;;;;;;;5.75;4.32;;;;;;;;;;5075149;28;20209;-88